sensor_id;sensor_type;location;lat;lon;timestamp;temperature;humidity
46231;DHT22;31949;51.404;-0.038;2022-08-03T00:02:14;19.80;99.90
46231;DHT22;31949;51.404;-0.038;2022-08-03T00:04:41;19.80;99.90
46231;DHT22;31949;51.404;-0.038;2022-08-03T00:07:08;19.70;99.90
46231;DHT22;31949;51.404;-0.038;2022-08-03T00:09:35;19.60;99.90
46231;DHT22;31949;51.404;-0.038;2022-08-03T00:12:03;19.60;99.90
46231;DHT22;31949;51.404;-0.038;2022-08-03T00:14:30;19.60;99.90
46231;DHT22;31949;51.404;-0.038;2022-08-03T00:16:58;19.60;99.90
46231;DHT22;31949;51.404;-0.038;2022-08-03T00:19:25;19.60;99.90
46231;DHT22;31949;51.404;-0.038;2022-08-03T00:21:52;19.50;99.90
46231;DHT22;31949;51.404;-0.038;2022-08-03T00:24:20;19.50;99.90
46231;DHT22;31949;51.404;-0.038;2022-08-03T00:26:47;19.60;99.90
46231;DHT22;31949;51.404;-0.038;2022-08-03T00:29:14;19.60;99.90
46231;DHT22;31949;51.404;-0.038;2022-08-03T00:31:41;19.50;99.90
46231;DHT22;31949;51.404;-0.038;2022-08-03T00:34:26;19.40;99.90
46231;DHT22;31949;51.404;-0.038;2022-08-03T00:37:13;19.50;99.90
46231;DHT22;31949;51.404;-0.038;2022-08-03T00:39:42;19.40;99.90
46231;DHT22;31949;51.404;-0.038;2022-08-03T00:42:11;19.40;99.90
46231;DHT22;31949;51.404;-0.038;2022-08-03T00:44:40;19.40;99.90
46231;DHT22;31949;51.404;-0.038;2022-08-03T00:47:09;19.30;99.90
46231;DHT22;31949;51.404;-0.038;2022-08-03T00:49:38;19.30;99.90
46231;DHT22;31949;51.404;-0.038;2022-08-03T00:52:09;19.30;99.90
46231;DHT22;31949;51.404;-0.038;2022-08-03T00:54:37;19.30;99.90
46231;DHT22;31949;51.404;-0.038;2022-08-03T00:57:05;19.20;99.90
46231;DHT22;31949;51.404;-0.038;2022-08-03T00:59:32;19.20;99.90
46231;DHT22;31949;51.404;-0.038;2022-08-03T01:02:00;19.20;99.90
46231;DHT22;31949;51.404;-0.038;2022-08-03T01:04:27;19.10;99.90
46231;DHT22;31949;51.404;-0.038;2022-08-03T01:07:19;19.00;99.90
46231;DHT22;31949;51.404;-0.038;2022-08-03T01:10:22;19.00;99.90
46231;DHT22;31949;51.404;-0.038;2022-08-03T01:13:36;19.10;99.90
46231;DHT22;31949;51.404;-0.038;2022-08-03T01:16:31;19.00;99.90
46231;DHT22;31949;51.404;-0.038;2022-08-03T01:30:16;18.90;99.90
46231;DHT22;31949;51.404;-0.038;2022-08-03T01:33:23;18.80;99.90
46231;DHT22;31949;51.404;-0.038;2022-08-03T01:36:02;18.90;99.90
46231;DHT22;31949;51.404;-0.038;2022-08-03T01:38:35;18.90;99.90
46231;DHT22;31949;51.404;-0.038;2022-08-03T01:41:09;18.90;99.90
46231;DHT22;31949;51.404;-0.038;2022-08-03T01:43:39;18.90;99.90
46231;DHT22;31949;51.404;-0.038;2022-08-03T01:46:30;18.90;99.90
46231;DHT22;31949;51.404;-0.038;2022-08-03T01:48:58;18.70;99.90
46231;DHT22;31949;51.404;-0.038;2022-08-03T01:51:37;18.80;99.90
46231;DHT22;31949;51.404;-0.038;2022-08-03T01:54:25;18.70;99.90
46231;DHT22;31949;51.404;-0.038;2022-08-03T01:56:56;18.80;99.90
46231;DHT22;31949;51.404;-0.038;2022-08-03T01:59:25;18.80;99.90
46231;DHT22;31949;51.404;-0.038;2022-08-03T02:01:53;18.80;99.90
46231;DHT22;31949;51.404;-0.038;2022-08-03T02:04:42;18.80;99.90
46231;DHT22;31949;51.404;-0.038;2022-08-03T02:07:11;18.70;99.90
46231;DHT22;31949;51.404;-0.038;2022-08-03T02:09:41;18.70;99.90
46231;DHT22;31949;51.404;-0.038;2022-08-03T02:12:11;18.70;99.90
46231;DHT22;31949;51.404;-0.038;2022-08-03T02:14:40;18.80;99.90
46231;DHT22;31949;51.404;-0.038;2022-08-03T02:17:09;18.80;99.90
46231;DHT22;31949;51.404;-0.038;2022-08-03T02:19:39;18.80;99.90
46231;DHT22;31949;51.404;-0.038;2022-08-03T02:22:10;18.90;99.90
46231;DHT22;31949;51.404;-0.038;2022-08-03T02:24:38;18.90;99.90
46231;DHT22;31949;51.404;-0.038;2022-08-03T02:27:30;19.00;99.90
46231;DHT22;31949;51.404;-0.038;2022-08-03T02:30:06;19.00;99.90
46231;DHT22;31949;51.404;-0.038;2022-08-03T02:32:38;19.10;99.90
46231;DHT22;31949;51.404;-0.038;2022-08-03T02:35:10;19.10;99.90
46231;DHT22;31949;51.404;-0.038;2022-08-03T02:37:42;19.10;99.90
46231;DHT22;31949;51.404;-0.038;2022-08-03T02:40:17;19.10;99.90
46231;DHT22;31949;51.404;-0.038;2022-08-03T02:42:46;19.10;99.90
46231;DHT22;31949;51.404;-0.038;2022-08-03T02:45:16;19.10;99.90
46231;DHT22;31949;51.404;-0.038;2022-08-03T02:47:45;19.10;99.90
46231;DHT22;31949;51.404;-0.038;2022-08-03T02:50:21;19.00;99.90
46231;DHT22;31949;51.404;-0.038;2022-08-03T02:52:50;19.10;99.90
46231;DHT22;31949;51.404;-0.038;2022-08-03T02:55:20;19.00;99.90
46231;DHT22;31949;51.404;-0.038;2022-08-03T02:57:49;19.00;99.90
46231;DHT22;31949;51.404;-0.038;2022-08-03T03:00:17;19.00;99.90
46231;DHT22;31949;51.404;-0.038;2022-08-03T03:02:58;19.10;99.90
46231;DHT22;31949;51.404;-0.038;2022-08-03T03:05:27;19.10;99.90
46231;DHT22;31949;51.404;-0.038;2022-08-03T03:08:17;19.20;99.90
46231;DHT22;31949;51.404;-0.038;2022-08-03T03:10:53;19.20;99.90
46231;DHT22;31949;51.404;-0.038;2022-08-03T03:13:22;19.40;99.90
46231;DHT22;31949;51.404;-0.038;2022-08-03T03:15:51;19.30;99.90
46231;DHT22;31949;51.404;-0.038;2022-08-03T03:18:20;19.30;99.90
46231;DHT22;31949;51.404;-0.038;2022-08-03T03:20:50;19.20;99.90
46231;DHT22;31949;51.404;-0.038;2022-08-03T03:23:20;19.20;99.90
46231;DHT22;31949;51.404;-0.038;2022-08-03T03:25:48;19.20;99.90
46231;DHT22;31949;51.404;-0.038;2022-08-03T03:28:16;19.20;99.90
46231;DHT22;31949;51.404;-0.038;2022-08-03T03:30:44;19.30;99.90
46231;DHT22;31949;51.404;-0.038;2022-08-03T03:33:20;19.20;99.90
46231;DHT22;31949;51.404;-0.038;2022-08-03T03:35:48;19.30;99.90
46231;DHT22;31949;51.404;-0.038;2022-08-03T03:38:15;19.40;99.90
46231;DHT22;31949;51.404;-0.038;2022-08-03T03:40:43;19.40;99.90
46231;DHT22;31949;51.404;-0.038;2022-08-03T03:43:11;19.40;99.90
46231;DHT22;31949;51.404;-0.038;2022-08-03T03:45:41;19.40;99.90
46231;DHT22;31949;51.404;-0.038;2022-08-03T03:48:09;19.30;99.90
46231;DHT22;31949;51.404;-0.038;2022-08-03T03:50:36;19.30;99.90
46231;DHT22;31949;51.404;-0.038;2022-08-03T03:53:12;19.30;99.90
46231;DHT22;31949;51.404;-0.038;2022-08-03T03:55:41;19.20;99.90
46231;DHT22;31949;51.404;-0.038;2022-08-03T03:58:28;19.20;99.90
46231;DHT22;31949;51.404;-0.038;2022-08-03T04:00:55;19.30;99.90
46231;DHT22;31949;51.404;-0.038;2022-08-03T04:03:22;19.40;99.90
46231;DHT22;31949;51.404;-0.038;2022-08-03T04:05:50;19.40;99.90
46231;DHT22;31949;51.404;-0.038;2022-08-03T04:08:36;19.40;99.90
46231;DHT22;31949;51.404;-0.038;2022-08-03T04:11:26;19.30;99.90
46231;DHT22;31949;51.404;-0.038;2022-08-03T04:14:18;19.30;99.90
46231;DHT22;31949;51.404;-0.038;2022-08-03T04:16:54;19.30;99.90
46231;DHT22;31949;51.404;-0.038;2022-08-03T04:19:41;19.30;99.90
46231;DHT22;31949;51.404;-0.038;2022-08-03T04:22:12;19.30;99.90
46231;DHT22;31949;51.404;-0.038;2022-08-03T04:24:43;19.30;99.90
46231;DHT22;31949;51.404;-0.038;2022-08-03T04:27:15;19.40;99.90
46231;DHT22;31949;51.404;-0.038;2022-08-03T04:29:46;19.40;99.90
46231;DHT22;31949;51.404;-0.038;2022-08-03T04:32:15;19.40;99.90
46231;DHT22;31949;51.404;-0.038;2022-08-03T04:34:44;19.40;99.90
46231;DHT22;31949;51.404;-0.038;2022-08-03T04:37:40;19.40;99.90
46231;DHT22;31949;51.404;-0.038;2022-08-03T04:40:08;19.40;99.90
46231;DHT22;31949;51.404;-0.038;2022-08-03T04:42:37;19.50;99.90
46231;DHT22;31949;51.404;-0.038;2022-08-03T04:45:06;19.40;99.90
46231;DHT22;31949;51.404;-0.038;2022-08-03T04:47:34;19.40;99.90
46231;DHT22;31949;51.404;-0.038;2022-08-03T04:50:06;19.40;99.90
46231;DHT22;31949;51.404;-0.038;2022-08-03T04:52:39;19.40;99.90
46231;DHT22;31949;51.404;-0.038;2022-08-03T04:55:07;19.40;99.90
46231;DHT22;31949;51.404;-0.038;2022-08-03T04:57:34;19.40;99.90
46231;DHT22;31949;51.404;-0.038;2022-08-03T05:00:02;19.40;99.90
46231;DHT22;31949;51.404;-0.038;2022-08-03T05:02:31;19.50;99.90
46231;DHT22;31949;51.404;-0.038;2022-08-03T05:04:58;19.50;99.90
46231;DHT22;31949;51.404;-0.038;2022-08-03T05:07:25;19.40;99.90
46231;DHT22;31949;51.404;-0.038;2022-08-03T05:10:06;19.40;99.90
46231;DHT22;31949;51.404;-0.038;2022-08-03T05:12:42;19.40;99.90
46231;DHT22;31949;51.404;-0.038;2022-08-03T05:15:10;19.50;99.90
46231;DHT22;31949;51.404;-0.038;2022-08-03T05:17:37;19.40;99.90
46231;DHT22;31949;51.404;-0.038;2022-08-03T05:20:05;19.50;99.90
46231;DHT22;31949;51.404;-0.038;2022-08-03T05:22:32;19.50;99.90
46231;DHT22;31949;51.404;-0.038;2022-08-03T05:25:00;19.50;99.90
46231;DHT22;31949;51.404;-0.038;2022-08-03T05:27:28;19.50;99.90
46231;DHT22;31949;51.404;-0.038;2022-08-03T05:29:55;19.50;99.90
46231;DHT22;31949;51.404;-0.038;2022-08-03T05:32:42;19.50;99.90
46231;DHT22;31949;51.404;-0.038;2022-08-03T05:35:09;19.50;99.90
46231;DHT22;31949;51.404;-0.038;2022-08-03T05:37:57;19.50;99.90
46231;DHT22;31949;51.404;-0.038;2022-08-03T05:40:24;19.50;99.90
46231;DHT22;31949;51.404;-0.038;2022-08-03T05:42:52;19.50;99.90
46231;DHT22;31949;51.404;-0.038;2022-08-03T05:45:20;19.50;99.90
46231;DHT22;31949;51.404;-0.038;2022-08-03T05:47:54;19.50;99.90
46231;DHT22;31949;51.404;-0.038;2022-08-03T05:50:21;19.50;99.90
46231;DHT22;31949;51.404;-0.038;2022-08-03T05:52:48;19.60;99.90
46231;DHT22;31949;51.404;-0.038;2022-08-03T05:55:16;19.60;99.90
46231;DHT22;31949;51.404;-0.038;2022-08-03T05:57:45;19.70;99.90
46231;DHT22;31949;51.404;-0.038;2022-08-03T06:00:12;19.70;99.90
46231;DHT22;31949;51.404;-0.038;2022-08-03T06:02:41;19.60;99.90
46231;DHT22;31949;51.404;-0.038;2022-08-03T06:05:09;19.80;99.90
46231;DHT22;31949;51.404;-0.038;2022-08-03T06:07:36;19.80;99.90
46231;DHT22;31949;51.404;-0.038;2022-08-03T06:10:04;19.80;99.90
46231;DHT22;31949;51.404;-0.038;2022-08-03T06:12:51;19.90;99.90
46231;DHT22;31949;51.404;-0.038;2022-08-03T06:15:19;20.00;99.90
46231;DHT22;31949;51.404;-0.038;2022-08-03T06:17:48;20.20;99.90
46231;DHT22;31949;51.404;-0.038;2022-08-03T06:20:17;20.30;99.90
46231;DHT22;31949;51.404;-0.038;2022-08-03T06:22:47;20.30;99.90
46231;DHT22;31949;51.404;-0.038;2022-08-03T06:25:17;20.40;99.90
46231;DHT22;31949;51.404;-0.038;2022-08-03T06:27:47;20.30;99.90
46231;DHT22;31949;51.404;-0.038;2022-08-03T06:30:14;20.30;99.90
46231;DHT22;31949;51.404;-0.038;2022-08-03T06:32:47;20.30;99.90
46231;DHT22;31949;51.404;-0.038;2022-08-03T06:35:18;20.40;99.90
46231;DHT22;31949;51.404;-0.038;2022-08-03T06:37:47;20.50;99.90
46231;DHT22;31949;51.404;-0.038;2022-08-03T06:40:17;20.40;99.90
46231;DHT22;31949;51.404;-0.038;2022-08-03T06:42:50;20.40;99.90
46231;DHT22;31949;51.404;-0.038;2022-08-03T06:45:17;20.40;99.90
46231;DHT22;31949;51.404;-0.038;2022-08-03T06:47:44;20.50;99.90
46231;DHT22;31949;51.404;-0.038;2022-08-03T06:50:12;20.60;99.90
46231;DHT22;31949;51.404;-0.038;2022-08-03T06:52:43;20.50;99.90
46231;DHT22;31949;51.404;-0.038;2022-08-03T06:55:11;20.50;99.90
46231;DHT22;31949;51.404;-0.038;2022-08-03T06:57:38;20.60;99.90
46231;DHT22;31949;51.404;-0.038;2022-08-03T07:00:06;20.60;99.90
46231;DHT22;31949;51.404;-0.038;2022-08-03T07:02:38;20.70;99.90
46231;DHT22;31949;51.404;-0.038;2022-08-03T07:05:07;20.70;99.90
46231;DHT22;31949;51.404;-0.038;2022-08-03T07:07:35;20.80;99.90
46231;DHT22;31949;51.404;-0.038;2022-08-03T07:10:04;20.90;99.90
46231;DHT22;31949;51.404;-0.038;2022-08-03T07:12:32;20.90;99.90
46231;DHT22;31949;51.404;-0.038;2022-08-03T07:15:00;20.70;99.90
46231;DHT22;31949;51.404;-0.038;2022-08-03T07:17:32;20.70;99.90
46231;DHT22;31949;51.404;-0.038;2022-08-03T07:20:02;20.80;99.90
46231;DHT22;31949;51.404;-0.038;2022-08-03T07:22:29;20.80;99.90
46231;DHT22;31949;51.404;-0.038;2022-08-03T07:24:57;20.80;99.90
46231;DHT22;31949;51.404;-0.038;2022-08-03T07:27:24;20.90;99.90
46231;DHT22;31949;51.404;-0.038;2022-08-03T07:29:56;21.00;99.90
46231;DHT22;31949;51.404;-0.038;2022-08-03T07:32:24;21.10;99.90
46231;DHT22;31949;51.404;-0.038;2022-08-03T07:34:52;21.20;99.90
46231;DHT22;31949;51.404;-0.038;2022-08-03T07:37:26;21.20;99.90
46231;DHT22;31949;51.404;-0.038;2022-08-03T07:39:53;21.00;99.90
46231;DHT22;31949;51.404;-0.038;2022-08-03T07:42:20;21.20;99.90
46231;DHT22;31949;51.404;-0.038;2022-08-03T07:44:49;21.20;99.90
46231;DHT22;31949;51.404;-0.038;2022-08-03T07:47:27;21.30;99.90
46231;DHT22;31949;51.404;-0.038;2022-08-03T07:50:02;21.30;99.90
46231;DHT22;31949;51.404;-0.038;2022-08-03T07:52:29;21.30;99.90
46231;DHT22;31949;51.404;-0.038;2022-08-03T07:55:17;21.30;99.90
46231;DHT22;31949;51.404;-0.038;2022-08-03T07:57:44;21.20;99.90
46231;DHT22;31949;51.404;-0.038;2022-08-03T08:00:15;21.30;99.90
46231;DHT22;31949;51.404;-0.038;2022-08-03T08:02:43;21.60;99.90
46231;DHT22;31949;51.404;-0.038;2022-08-03T08:05:11;21.50;99.90
46231;DHT22;31949;51.404;-0.038;2022-08-03T08:07:39;21.40;99.90
46231;DHT22;31949;51.404;-0.038;2022-08-03T08:10:07;21.40;99.90
46231;DHT22;31949;51.404;-0.038;2022-08-03T08:12:37;21.30;99.90
46231;DHT22;31949;51.404;-0.038;2022-08-03T08:15:05;21.50;99.90
46231;DHT22;31949;51.404;-0.038;2022-08-03T08:17:43;21.50;99.90
46231;DHT22;31949;51.404;-0.038;2022-08-03T08:20:14;21.50;99.90
46231;DHT22;31949;51.404;-0.038;2022-08-03T08:22:44;21.50;99.90
46231;DHT22;31949;51.404;-0.038;2022-08-03T08:25:12;21.60;99.90
46231;DHT22;31949;51.404;-0.038;2022-08-03T08:27:47;21.70;99.90
46231;DHT22;31949;51.404;-0.038;2022-08-03T08:30:35;21.70;99.90
46231;DHT22;31949;51.404;-0.038;2022-08-03T08:33:02;21.90;99.90
46231;DHT22;31949;51.404;-0.038;2022-08-03T08:35:29;21.80;99.90
46231;DHT22;31949;51.404;-0.038;2022-08-03T08:37:59;21.90;99.90
46231;DHT22;31949;51.404;-0.038;2022-08-03T08:40:31;22.00;99.90
46231;DHT22;31949;51.404;-0.038;2022-08-03T08:42:59;22.10;99.90
46231;DHT22;31949;51.404;-0.038;2022-08-03T08:45:27;22.20;99.90
46231;DHT22;31949;51.404;-0.038;2022-08-03T08:47:56;22.30;99.90
46231;DHT22;31949;51.404;-0.038;2022-08-03T08:50:29;22.40;99.90
46231;DHT22;31949;51.404;-0.038;2022-08-03T08:52:59;22.60;99.90
46231;DHT22;31949;51.404;-0.038;2022-08-03T08:55:28;22.70;99.90
46231;DHT22;31949;51.404;-0.038;2022-08-03T08:58:16;22.50;99.90
46231;DHT22;31949;51.404;-0.038;2022-08-03T09:00:47;22.80;99.90
46231;DHT22;31949;51.404;-0.038;2022-08-03T09:03:14;22.80;99.90
46231;DHT22;31949;51.404;-0.038;2022-08-03T09:05:55;22.70;99.90
46231;DHT22;31949;51.404;-0.038;2022-08-03T09:08:23;22.80;99.90
46231;DHT22;31949;51.404;-0.038;2022-08-03T09:10:51;22.90;99.90
46231;DHT22;31949;51.404;-0.038;2022-08-03T09:13:18;22.90;99.90
46231;DHT22;31949;51.404;-0.038;2022-08-03T09:18:38;22.90;99.90
46231;DHT22;31949;51.404;-0.038;2022-08-03T09:24:05;22.90;99.90
46231;DHT22;31949;51.404;-0.038;2022-08-03T09:26:49;23.20;99.90
46231;DHT22;31949;51.404;-0.038;2022-08-03T09:29:20;23.20;99.90
46231;DHT22;31949;51.404;-0.038;2022-08-03T09:31:48;23.20;99.90
46231;DHT22;31949;51.404;-0.038;2022-08-03T09:34:16;23.20;99.90
46231;DHT22;31949;51.404;-0.038;2022-08-03T09:36:45;23.20;99.90
46231;DHT22;31949;51.404;-0.038;2022-08-03T09:39:25;23.30;99.90
46231;DHT22;31949;51.404;-0.038;2022-08-03T09:42:09;23.20;99.90
46231;DHT22;31949;51.404;-0.038;2022-08-03T09:44:48;23.30;99.90
46231;DHT22;31949;51.404;-0.038;2022-08-03T09:47:32;23.40;99.90
46231;DHT22;31949;51.404;-0.038;2022-08-03T09:50:04;23.50;99.90
46231;DHT22;31949;51.404;-0.038;2022-08-03T09:52:37;23.50;99.90
46231;DHT22;31949;51.404;-0.038;2022-08-03T09:55:17;23.50;99.90
46231;DHT22;31949;51.404;-0.038;2022-08-03T09:58:07;23.60;99.90
46231;DHT22;31949;51.404;-0.038;2022-08-03T10:00:57;23.80;99.90
46231;DHT22;31949;51.404;-0.038;2022-08-03T10:03:27;23.80;99.90
46231;DHT22;31949;51.404;-0.038;2022-08-03T10:05:55;23.80;99.90
46231;DHT22;31949;51.404;-0.038;2022-08-03T10:08:26;24.00;99.90
46231;DHT22;31949;51.404;-0.038;2022-08-03T10:10:53;24.10;99.90
46231;DHT22;31949;51.404;-0.038;2022-08-03T10:13:21;24.30;99.90
46231;DHT22;31949;51.404;-0.038;2022-08-03T10:15:49;24.30;99.90
46231;DHT22;31949;51.404;-0.038;2022-08-03T10:18:37;24.50;99.90
46231;DHT22;31949;51.404;-0.038;2022-08-03T10:21:07;24.80;99.90
46231;DHT22;31949;51.404;-0.038;2022-08-03T10:23:37;24.90;99.90
46231;DHT22;31949;51.404;-0.038;2022-08-03T10:26:06;24.80;99.90
46231;DHT22;31949;51.404;-0.038;2022-08-03T10:28:38;25.00;99.90
46231;DHT22;31949;51.404;-0.038;2022-08-03T10:31:12;25.10;99.90
46231;DHT22;31949;51.404;-0.038;2022-08-03T10:33:47;25.30;99.90
46231;DHT22;31949;51.404;-0.038;2022-08-03T10:36:22;25.30;99.90
46231;DHT22;31949;51.404;-0.038;2022-08-03T10:38:51;25.10;99.90
46231;DHT22;31949;51.404;-0.038;2022-08-03T10:41:21;25.10;99.90
46231;DHT22;31949;51.404;-0.038;2022-08-03T10:46:32;25.30;99.90
46231;DHT22;31949;51.404;-0.038;2022-08-03T10:49:01;25.30;99.90
46231;DHT22;31949;51.404;-0.038;2022-08-03T10:51:29;25.50;99.90
46231;DHT22;31949;51.404;-0.038;2022-08-03T10:53:59;25.40;99.90
46231;DHT22;31949;51.404;-0.038;2022-08-03T11:02:13;25.70;99.90
46231;DHT22;31949;51.404;-0.038;2022-08-03T11:04:41;25.60;99.90
46231;DHT22;31949;51.404;-0.038;2022-08-03T11:07:20;25.60;99.90
46231;DHT22;31949;51.404;-0.038;2022-08-03T11:09:53;25.70;99.90
46231;DHT22;31949;51.404;-0.038;2022-08-03T11:12:30;25.80;99.90
46231;DHT22;31949;51.404;-0.038;2022-08-03T11:15:04;25.80;99.90
46231;DHT22;31949;51.404;-0.038;2022-08-03T11:17:33;25.80;99.90
46231;DHT22;31949;51.404;-0.038;2022-08-03T11:23:14;25.90;99.90
46231;DHT22;31949;51.404;-0.038;2022-08-03T11:28:35;26.10;99.90
46231;DHT22;31949;51.404;-0.038;2022-08-03T11:34:16;26.40;99.90
46231;DHT22;31949;51.404;-0.038;2022-08-03T11:37:17;26.60;99.90
46231;DHT22;31949;51.404;-0.038;2022-08-03T11:39:49;26.70;99.90
46231;DHT22;31949;51.404;-0.038;2022-08-03T11:44:54;26.90;99.90
46231;DHT22;31949;51.404;-0.038;2022-08-03T11:47:22;26.80;99.90
46231;DHT22;31949;51.404;-0.038;2022-08-03T11:49:52;26.80;99.90
46231;DHT22;31949;51.404;-0.038;2022-08-03T11:52:21;26.80;99.90
46231;DHT22;31949;51.404;-0.038;2022-08-03T11:54:54;26.90;99.90
46231;DHT22;31949;51.404;-0.038;2022-08-03T11:57:34;26.70;99.90
46231;DHT22;31949;51.404;-0.038;2022-08-03T12:00:30;26.60;99.90
46231;DHT22;31949;51.404;-0.038;2022-08-03T12:03:08;26.50;99.90
46231;DHT22;31949;51.404;-0.038;2022-08-03T12:05:38;26.70;99.90
46231;DHT22;31949;51.404;-0.038;2022-08-03T12:08:07;26.80;99.90
46231;DHT22;31949;51.404;-0.038;2022-08-03T12:10:36;26.80;99.90
46231;DHT22;31949;51.404;-0.038;2022-08-03T12:13:05;26.90;99.90
46231;DHT22;31949;51.404;-0.038;2022-08-03T12:15:56;27.10;99.90
46231;DHT22;31949;51.404;-0.038;2022-08-03T12:18:25;27.00;99.90
46231;DHT22;31949;51.404;-0.038;2022-08-03T12:20:54;27.10;99.90
46231;DHT22;31949;51.404;-0.038;2022-08-03T12:23:29;27.10;99.90
46231;DHT22;31949;51.404;-0.038;2022-08-03T12:26:06;27.30;99.90
46231;DHT22;31949;51.404;-0.038;2022-08-03T12:28:34;27.20;99.90
46231;DHT22;31949;51.404;-0.038;2022-08-03T12:31:06;27.20;99.90
46231;DHT22;31949;51.404;-0.038;2022-08-03T12:36:21;27.30;99.90
46231;DHT22;31949;51.404;-0.038;2022-08-03T12:39:00;27.20;99.90
46231;DHT22;31949;51.404;-0.038;2022-08-03T12:41:30;27.30;99.90
46231;DHT22;31949;51.404;-0.038;2022-08-03T12:43:58;27.40;99.90
46231;DHT22;31949;51.404;-0.038;2022-08-03T12:46:31;27.50;99.90
46231;DHT22;31949;51.404;-0.038;2022-08-03T12:49:09;27.50;99.90
46231;DHT22;31949;51.404;-0.038;2022-08-03T12:54:16;27.40;99.90
46231;DHT22;31949;51.404;-0.038;2022-08-03T12:57:00;27.30;99.90
46231;DHT22;31949;51.404;-0.038;2022-08-03T12:59:29;27.30;99.90
46231;DHT22;31949;51.404;-0.038;2022-08-03T13:04:41;27.30;99.90
46231;DHT22;31949;51.404;-0.038;2022-08-03T13:07:10;27.30;99.90
46231;DHT22;31949;51.404;-0.038;2022-08-03T13:09:45;27.20;99.90
46231;DHT22;31949;51.404;-0.038;2022-08-03T13:12:17;27.40;99.90
46231;DHT22;31949;51.404;-0.038;2022-08-03T13:14:45;27.50;99.90
46231;DHT22;31949;51.404;-0.038;2022-08-03T13:17:13;27.60;99.90
46231;DHT22;31949;51.404;-0.038;2022-08-03T13:19:43;27.50;99.90
46231;DHT22;31949;51.404;-0.038;2022-08-03T13:24:43;27.50;99.90
46231;DHT22;31949;51.404;-0.038;2022-08-03T13:27:11;27.60;99.90
46231;DHT22;31949;51.404;-0.038;2022-08-03T13:29:59;27.70;99.90
46231;DHT22;31949;51.404;-0.038;2022-08-03T13:32:26;27.60;99.90
46231;DHT22;31949;51.404;-0.038;2022-08-03T13:34:53;27.70;99.90
46231;DHT22;31949;51.404;-0.038;2022-08-03T13:37:20;27.80;99.90
46231;DHT22;31949;51.404;-0.038;2022-08-03T13:39:48;27.90;99.80
46231;DHT22;31949;51.404;-0.038;2022-08-03T13:42:30;27.80;99.70
46231;DHT22;31949;51.404;-0.038;2022-08-03T13:44:58;27.90;99.90
46231;DHT22;31949;51.404;-0.038;2022-08-03T13:47:26;28.00;99.50
46231;DHT22;31949;51.404;-0.038;2022-08-03T13:49:54;28.10;99.40
46231;DHT22;31949;51.404;-0.038;2022-08-03T13:52:33;28.20;98.60
46231;DHT22;31949;51.404;-0.038;2022-08-03T13:55:03;28.00;99.00
46231;DHT22;31949;51.404;-0.038;2022-08-03T13:57:30;27.90;99.00
46231;DHT22;31949;51.404;-0.038;2022-08-03T14:00:18;28.10;98.80
46231;DHT22;31949;51.404;-0.038;2022-08-03T14:02:58;28.20;98.80
46231;DHT22;31949;51.404;-0.038;2022-08-03T14:05:41;28.30;98.10
46231;DHT22;31949;51.404;-0.038;2022-08-03T14:08:09;28.20;98.80
46231;DHT22;31949;51.404;-0.038;2022-08-03T14:10:38;28.30;98.60
46231;DHT22;31949;51.404;-0.038;2022-08-03T14:13:06;28.10;98.80
46231;DHT22;31949;51.404;-0.038;2022-08-03T14:15:34;28.20;98.90
46231;DHT22;31949;51.404;-0.038;2022-08-03T14:18:08;28.30;98.10
46231;DHT22;31949;51.404;-0.038;2022-08-03T14:20:42;28.30;98.30
46231;DHT22;31949;51.404;-0.038;2022-08-03T14:23:17;28.40;98.30
46231;DHT22;31949;51.404;-0.038;2022-08-03T14:25:45;28.20;98.40
46231;DHT22;31949;51.404;-0.038;2022-08-03T14:28:22;28.20;98.10
46231;DHT22;31949;51.404;-0.038;2022-08-03T14:30:51;28.30;97.90
46231;DHT22;31949;51.404;-0.038;2022-08-03T14:33:19;28.30;98.00
46231;DHT22;31949;51.404;-0.038;2022-08-03T14:35:46;28.30;98.10
46231;DHT22;31949;51.404;-0.038;2022-08-03T14:38:14;28.30;97.90
46231;DHT22;31949;51.404;-0.038;2022-08-03T14:40:42;28.30;97.60
46231;DHT22;31949;51.404;-0.038;2022-08-03T14:43:09;28.40;97.80
46231;DHT22;31949;51.404;-0.038;2022-08-03T14:45:37;28.40;97.90
46231;DHT22;31949;51.404;-0.038;2022-08-03T14:48:05;28.40;97.70
46231;DHT22;31949;51.404;-0.038;2022-08-03T14:50:53;28.40;97.90
46231;DHT22;31949;51.404;-0.038;2022-08-03T14:53:21;28.30;98.20
46231;DHT22;31949;51.404;-0.038;2022-08-03T14:55:50;28.40;97.90
46231;DHT22;31949;51.404;-0.038;2022-08-03T14:58:19;28.20;98.30
46231;DHT22;31949;51.404;-0.038;2022-08-03T15:00:49;28.20;98.00
46231;DHT22;31949;51.404;-0.038;2022-08-03T15:03:18;28.20;98.00
46231;DHT22;31949;51.404;-0.038;2022-08-03T15:05:53;28.10;98.00
46231;DHT22;31949;51.404;-0.038;2022-08-03T15:08:21;28.00;98.40
46231;DHT22;31949;51.404;-0.038;2022-08-03T15:10:49;28.10;98.50
46231;DHT22;31949;51.404;-0.038;2022-08-03T15:13:18;28.20;98.70
46231;DHT22;31949;51.404;-0.038;2022-08-03T15:15:48;28.30;98.10
46231;DHT22;31949;51.404;-0.038;2022-08-03T15:18:15;28.20;98.60
46231;DHT22;31949;51.404;-0.038;2022-08-03T15:20:43;28.20;98.50
46231;DHT22;31949;51.404;-0.038;2022-08-03T15:23:13;28.20;98.50
46231;DHT22;31949;51.404;-0.038;2022-08-03T15:25:42;28.20;98.40
46231;DHT22;31949;51.404;-0.038;2022-08-03T15:28:30;28.20;98.70
46231;DHT22;31949;51.404;-0.038;2022-08-03T15:30:59;28.10;98.70
46231;DHT22;31949;51.404;-0.038;2022-08-03T15:33:27;28.10;98.80
46231;DHT22;31949;51.404;-0.038;2022-08-03T15:35:55;28.00;98.70
46231;DHT22;31949;51.404;-0.038;2022-08-03T15:38:23;28.10;98.80
46231;DHT22;31949;51.404;-0.038;2022-08-03T15:40:53;28.10;98.60
46231;DHT22;31949;51.404;-0.038;2022-08-03T15:43:21;27.90;99.00
46231;DHT22;31949;51.404;-0.038;2022-08-03T15:45:49;27.90;98.80
46231;DHT22;31949;51.404;-0.038;2022-08-03T15:48:36;27.70;99.20
46231;DHT22;31949;51.404;-0.038;2022-08-03T15:51:04;27.70;99.10
46231;DHT22;31949;51.404;-0.038;2022-08-03T15:53:32;27.80;99.10
46231;DHT22;31949;51.404;-0.038;2022-08-03T15:56:00;27.90;99.00
46231;DHT22;31949;51.404;-0.038;2022-08-03T15:58:33;27.70;99.00
46231;DHT22;31949;51.404;-0.038;2022-08-03T16:01:20;28.00;99.00
46231;DHT22;31949;51.404;-0.038;2022-08-03T16:03:48;28.10;98.90
46231;DHT22;31949;51.404;-0.038;2022-08-03T16:06:15;28.10;99.00
46231;DHT22;31949;51.404;-0.038;2022-08-03T16:08:56;28.10;98.90
46231;DHT22;31949;51.404;-0.038;2022-08-03T16:11:23;28.00;98.70
46231;DHT22;31949;51.404;-0.038;2022-08-03T16:13:51;28.10;98.80
46231;DHT22;31949;51.404;-0.038;2022-08-03T16:16:38;28.20;98.70
46231;DHT22;31949;51.404;-0.038;2022-08-03T16:19:06;28.20;98.90
46231;DHT22;31949;51.404;-0.038;2022-08-03T16:21:34;28.30;98.80
46231;DHT22;31949;51.404;-0.038;2022-08-03T16:24:15;28.10;98.90
46231;DHT22;31949;51.404;-0.038;2022-08-03T16:26:45;28.00;99.20
46231;DHT22;31949;51.404;-0.038;2022-08-03T16:29:12;28.00;99.10
46231;DHT22;31949;51.404;-0.038;2022-08-03T16:31:49;27.90;99.00
46231;DHT22;31949;51.404;-0.038;2022-08-03T16:34:17;28.00;99.10